Time;durP1;ratioP1;P1;durP2;ratioP2;P2;SDS_P1;SDS_P2;PMS_P1;PMS_P2;Temp;Humidity;BMP_temperature;BMP_pressure;BME280_temperature;BME280_humidity;BME280_pressure;Samples;Min_cycle;Max_cycle;Signal;HPM_P1;HPM_P2
2024/02/29 00:02:52;;;;;;;19.08;10.15;;;9.20;99.90;;;;;;10061169;28;20037;-66
2024/02/29 00:07:43;;;;;;;24.48;8.52;;;9.20;99.90;;;;;;10061864;28;20568;-65
2024/02/29 00:12:33;;;;;;;14.32;7.55;;;9.20;99.90;;;;;;10073469;28;20547;-67
2024/02/29 00:17:24;;;;;;;14.02;8.80;;;9.10;99.90;;;;;;10060943;28;20029;-64
2024/02/29 00:22:15;;;;;;;12.00;6.82;;;9.10;99.90;;;;;;10058268;28;20412;-70
2024/02/29 00:27:07;;;;;;;10.43;6.00;;;9.00;99.90;;;;;;10062632;28;20475;-71
2024/02/29 00:32:00;;;;;;;15.45;7.20;;;8.90;99.90;;;;;;10052220;28;20037;-64
2024/02/29 00:36:51;;;;;;;10.57;6.07;;;8.70;99.90;;;;;;10064914;28;20052;-70
2024/02/29 00:41:42;;;;;;;10.38;6.00;;;8.70;99.90;;;;;;10065479;28;20041;-65
2024/02/29 00:46:32;;;;;;;7.68;4.90;;;8.50;99.90;;;;;;10058403;28;20133;-65
2024/02/29 00:51:23;;;;;;;10.32;4.43;;;8.40;99.90;;;;;;10060308;28;20502;-66
2024/02/29 00:56:14;;;;;;;7.35;3.88;;;8.30;99.90;;;;;;10058044;28;20704;-65
2024/02/29 01:01:07;;;;;;;9.27;4.45;;;8.20;99.90;;;;;;10057292;28;20033;-64
2024/02/29 01:05:58;;;;;;;9.27;4.28;;;8.20;99.90;;;;;;10057758;28;20036;-65
2024/02/29 01:10:49;;;;;;;8.32;4.20;;;8.20;99.90;;;;;;10058671;28;20121;-65
2024/02/29 01:15:40;;;;;;;7.20;4.28;;;8.20;99.90;;;;;;10058135;28;20113;-65
2024/02/29 01:20:30;;;;;;;7.15;3.58;;;8.20;99.90;;;;;;10063557;28;20026;-68
2024/02/29 01:25:24;;;;;;;8.15;3.63;;;8.20;99.90;;;;;;10057473;28;20060;-67
2024/02/29 01:30:15;;;;;;;6.97;4.10;;;8.30;99.90;;;;;;10057698;28;20089;-68
2024/02/29 01:35:06;;;;;;;8.38;4.13;;;8.20;99.90;;;;;;10062789;28;20116;-67
2024/02/29 01:39:56;;;;;;;8.00;5.43;;;8.20;99.90;;;;;;10056691;28;20021;-67
2024/02/29 01:44:54;;;;;;;6.57;4.25;;;8.20;99.90;;;;;;10034798;28;20041;-66
2024/02/29 01:49:46;;;;;;;7.70;4.75;;;8.20;99.90;;;;;;10057282;28;20032;-65
2024/02/29 01:54:37;;;;;;;7.03;4.10;;;8.20;99.90;;;;;;10056747;28;20052;-65
2024/02/29 01:59:29;;;;;;;9.13;4.60;;;8.20;99.90;;;;;;10056244;28;20569;-65
2024/02/29 02:04:23;;;;;;;11.05;4.30;;;8.10;99.90;;;;;;10051595;28;20511;-65
2024/02/29 02:09:14;;;;;;;7.93;4.45;;;8.10;99.90;;;;;;10056482;28;20052;-65
2024/02/29 02:14:05;;;;;;;8.52;5.60;;;8.10;99.90;;;;;;10058711;28;20029;-65
2024/02/29 02:18:55;;;;;;;10.90;5.55;;;8.10;99.90;;;;;;10056082;28;20065;-65
2024/02/29 02:23:46;;;;;;;8.57;4.80;;;8.00;99.90;;;;;;10051687;28;20060;-65
2024/02/29 02:28:37;;;;;;;11.30;5.65;;;8.00;99.90;;;;;;10056715;28;20039;-65
2024/02/29 02:33:28;;;;;;;8.98;5.25;;;7.90;99.90;;;;;;10046579;28;20030;-65
2024/02/29 02:38:18;;;;;;;9.43;5.32;;;7.90;99.90;;;;;;10048672;28;20036;-66
2024/02/29 02:43:09;;;;;;;8.95;4.82;;;7.70;99.90;;;;;;10058958;28;20091;-64
2024/02/29 02:47:59;;;;;;;6.93;4.50;;;7.70;99.90;;;;;;10053394;28;20124;-65
2024/02/29 02:52:50;;;;;;;12.05;5.47;;;7.60;99.90;;;;;;10056083;28;20483;-64
2024/02/29 02:57:41;;;;;;;13.05;5.47;;;7.60;99.90;;;;;;10061126;28;20040;-64
2024/02/29 03:02:31;;;;;;;10.95;5.93;;;7.60;99.90;;;;;;10055878;28;20029;-64
2024/02/29 03:07:22;;;;;;;10.82;5.13;;;7.60;99.90;;;;;;10054859;28;20033;-67
2024/02/29 03:12:13;;;;;;;9.77;6.05;;;7.60;99.90;;;;;;10057521;28;20026;-66
2024/02/29 03:17:04;;;;;;;11.52;4.85;;;7.60;99.90;;;;;;10055505;28;20064;-67
2024/02/29 03:21:55;;;;;;;12.55;6.30;;;7.60;99.90;;;;;;10055483;28;20053;-65
2024/02/29 03:26:46;;;;;;;11.57;6.47;;;7.50;99.90;;;;;;10052538;28;20038;-66
2024/02/29 03:31:37;;;;;;;13.23;6.35;;;7.50;99.90;;;;;;10057345;28;20018;-65
2024/02/29 03:36:28;;;;;;;13.95;5.85;;;7.50;99.90;;;;;;10056307;28;20507;-66
2024/02/29 03:41:18;;;;;;;14.38;7.53;;;7.40;99.90;;;;;;10062066;28;20124;-65
2024/02/29 03:46:09;;;;;;;10.38;5.57;;;7.30;99.90;;;;;;10061168;28;20116;-69
2024/02/29 03:51:00;;;;;;;11.77;6.30;;;7.30;99.90;;;;;;10064716;28;20036;-66
2024/02/29 03:55:51;;;;;;;14.75;6.28;;;7.30;99.90;;;;;;10060816;28;20033;-71
2024/02/29 04:00:42;;;;;;;12.90;7.07;;;7.20;99.90;;;;;;10060993;28;20040;-66
2024/02/29 04:05:33;;;;;;;14.75;6.03;;;7.10;99.90;;;;;;10059056;28;20430;-66
2024/02/29 04:10:23;;;;;;;16.30;7.45;;;7.10;99.90;;;;;;10060094;28;20022;-68
2024/02/29 04:15:14;;;;;;;14.25;7.47;;;7.10;99.90;;;;;;10060232;28;20025;-66
2024/02/29 04:20:08;;;;;;;12.88;6.85;;;7.10;99.90;;;;;;10059952;28;20037;-67
2024/02/29 04:24:59;;;;;;;12.13;6.05;;;7.10;99.90;;;;;;10059660;28;20277;-65
2024/02/29 04:29:49;;;;;;;13.48;7.15;;;7.00;99.90;;;;;;10065104;28;20490;-66
2024/02/29 04:34:41;;;;;;;15.85;7.15;;;7.00;99.90;;;;;;10059641;28;20034;-66
2024/02/29 04:39:32;;;;;;;10.43;6.65;;;7.00;99.90;;;;;;10059477;28;20043;-71
2024/02/29 04:44:23;;;;;;;13.23;6.30;;;7.00;99.90;;;;;;10060336;28;20132;-65
2024/02/29 04:49:13;;;;;;;14.05;7.70;;;7.00;99.90;;;;;;10058917;28;20033;-67
2024/02/29 04:54:04;;;;;;;12.73;6.47;;;7.00;99.90;;;;;;10058715;28;20021;-69
2024/02/29 04:58:54;;;;;;;14.65;7.22;;;6.90;99.90;;;;;;10059205;28;20427;-65
2024/02/29 05:03:45;;;;;;;12.90;6.53;;;6.90;99.90;;;;;;10058372;28;20059;-66
2024/02/29 05:08:37;;;;;;;14.10;7.13;;;6.80;99.90;;;;;;10057130;28;20030;-69
2024/02/29 05:13:28;;;;;;;10.43;6.45;;;6.80;99.90;;;;;;10058729;28;20025;-71
2024/02/29 05:18:19;;;;;;;13.60;7.15;;;6.90;99.90;;;;;;10056720;28;20029;-69
2024/02/29 05:23:11;;;;;;;17.23;7.70;;;6.90;99.90;;;;;;10058323;28;20111;-71
2024/02/29 05:28:01;;;;;;;16.17;7.28;;;6.80;99.90;;;;;;10062574;28;20022;-68
2024/02/29 05:32:52;;;;;;;11.95;8.05;;;6.80;99.90;;;;;;10056785;28;20060;-66
2024/02/29 05:37:44;;;;;;;13.75;7.05;;;6.70;99.90;;;;;;10057298;28;20029;-66
2024/02/29 05:42:34;;;;;;;10.60;7.10;;;6.50;99.90;;;;;;10057954;28;20480;-67
2024/02/29 05:47:25;;;;;;;14.02;7.00;;;6.60;99.90;;;;;;10056828;28;20025;-65
2024/02/29 05:52:17;;;;;;;13.50;7.10;;;6.60;99.90;;;;;;10056721;28;20122;-66
2024/02/29 05:57:07;;;;;;;13.20;6.88;;;6.60;99.90;;;;;;10058501;28;20030;-70
2024/02/29 06:01:58;;;;;;;10.40;6.68;;;6.50;99.90;;;;;;10081573;28;20033;-69
2024/02/29 06:06:49;;;;;;;14.00;7.20;;;6.50;99.90;;;;;;10057646;28;20127;-66
2024/02/29 06:11:40;;;;;;;13.50;6.97;;;6.50;99.90;;;;;;10058275;28;20038;-66
2024/02/29 06:16:30;;;;;;;12.45;6.35;;;6.50;99.90;;;;;;10084742;28;20033;-66
2024/02/29 06:21:21;;;;;;;11.05;6.50;;;6.40;99.90;;;;;;10057385;28;20769;-68
2024/02/29 06:26:12;;;;;;;11.43;6.30;;;6.40;99.90;;;;;;10058897;28;20017;-66
2024/02/29 06:31:05;;;;;;;10.02;6.47;;;6.40;99.90;;;;;;10057234;28;20038;-66
2024/02/29 06:35:56;;;;;;;13.38;6.00;;;6.40;99.90;;;;;;10063021;28;20056;-66
2024/02/29 06:40:47;;;;;;;9.68;5.35;;;6.40;99.90;;;;;;10056967;28;20033;-67
2024/02/29 06:45:44;;;;;;;10.75;6.05;;;6.40;99.90;;;;;;10054566;28;20120;-66
2024/02/29 06:50:36;;;;;;;13.27;6.53;;;6.40;99.90;;;;;;10056408;28;20029;-67
2024/02/29 06:55:27;;;;;;;8.32;5.57;;;6.40;99.90;;;;;;10055216;28;20136;-67
2024/02/29 07:00:18;;;;;;;11.05;6.45;;;6.40;99.90;;;;;;10055847;28;20057;-66
2024/02/29 07:05:09;;;;;;;12.40;6.22;;;6.30;99.90;;;;;;10057136;28;20079;-66
2024/02/29 07:09:59;;;;;;;12.77;6.85;;;6.30;99.90;;;;;;10062930;28;20838;-65
2024/02/29 07:14:50;;;;;;;14.45;6.45;;;6.40;99.90;;;;;;10062592;28;20038;-65
2024/02/29 07:19:41;;;;;;;10.27;5.00;;;6.40;99.90;;;;;;10063033;28;20483;-66
2024/02/29 07:24:32;;;;;;;10.13;5.85;;;6.30;99.90;;;;;;10061861;28;20045;-66
2024/02/29 07:29:23;;;;;;;11.27;6.38;;;6.30;99.90;;;;;;10063017;28;20025;-66
2024/02/29 07:34:15;;;;;;;8.80;5.57;;;6.40;99.90;;;;;;10070036;28;20119;-67
2024/02/29 07:39:07;;;;;;;12.63;6.00;;;6.40;99.90;;;;;;10063748;28;20576;-66
2024/02/29 07:43:58;;;;;;;13.32;6.32;;;6.30;99.90;;;;;;10072673;28;20064;-63
2024/02/29 07:48:49;;;;;;;10.75;6.30;;;6.30;99.90;;;;;;10071480;28;20066;-64
2024/02/29 07:53:40;;;;;;;9.00;5.95;;;6.30;99.90;;;;;;10055194;28;20037;-65
2024/02/29 07:58:30;;;;;;;12.98;6.05;;;6.40;99.90;;;;;;10065286;28;20050;-66
2024/02/29 08:03:21;;;;;;;11.13;5.57;;;6.40;99.90;;;;;;10061309;28;20088;-70
2024/02/29 08:08:12;;;;;;;15.65;7.72;;;6.50;99.90;;;;;;10064288;28;20045;-64
2024/02/29 08:13:02;;;;;;;16.25;8.40;;;6.50;99.90;;;;;;10065935;28;20121;-65
2024/02/29 08:17:53;;;;;;;16.77;7.85;;;6.50;99.90;;;;;;10067929;28;20022;-64
2024/02/29 08:22:44;;;;;;;14.98;7.85;;;6.60;99.90;;;;;;10074755;28;20057;-64
2024/02/29 08:27:35;;;;;;;23.42;9.43;;;6.60;99.90;;;;;;10068391;28;20434;-65
2024/02/29 08:32:26;;;;;;;13.93;7.90;;;6.60;99.90;;;;;;10059009;28;20154;-66
2024/02/29 08:37:17;;;;;;;21.65;10.43;;;6.70;99.90;;;;;;10068951;28;20104;-69
2024/02/29 08:42:09;;;;;;;41.63;18.08;;;6.60;99.90;;;;;;10076404;28;20041;-66
2024/02/29 08:47:03;;;;;;;25.80;12.38;;;6.70;99.90;;;;;;10071308;28;20052;-69
2024/02/29 08:51:54;;;;;;;21.35;11.77;;;6.70;99.90;;;;;;10081563;28;20021;-63
2024/02/29 08:56:45;;;;;;;21.70;10.05;;;6.60;99.90;;;;;;10059351;28;20029;-64
2024/02/29 09:01:37;;;;;;;25.38;11.27;;;6.70;99.90;;;;;;10058818;28;20112;-67
2024/02/29 09:06:28;;;;;;;25.92;11.35;;;6.80;99.90;;;;;;10058151;28;20477;-66
2024/02/29 09:11:19;;;;;;;18.48;10.52;;;6.80;99.90;;;;;;10064268;28;20653;-65
2024/02/29 09:16:10;;;;;;;30.02;11.23;;;6.90;99.90;;;;;;10070396;28;20021;-67
2024/02/29 09:21:00;;;;;;;23.85;10.57;;;6.90;99.90;;;;;;10066724;28;20044;-66
2024/02/29 09:25:51;;;;;;;26.27;11.13;;;6.90;99.90;;;;;;10052607;28;20324;-65
2024/02/29 09:30:42;;;;;;;25.23;9.80;;;7.00;99.90;;;;;;10056714;28;20025;-63
2024/02/29 09:35:33;;;;;;;20.13;10.07;;;7.10;99.90;;;;;;10057697;28;20022;-64
2024/02/29 09:40:23;;;;;;;20.27;10.73;;;7.10;99.90;;;;;;10059696;28;20045;-64
2024/02/29 09:45:15;;;;;;;20.45;10.02;;;7.20;99.90;;;;;;10056376;28;20029;-64
2024/02/29 09:50:08;;;;;;;19.35;9.73;;;7.20;99.90;;;;;;10057368;28;20104;-64
2024/02/29 09:55:03;;;;;;;17.45;8.63;;;7.30;99.90;;;;;;10056743;28;20156;-66
2024/02/29 09:59:56;;;;;;;20.52;9.05;;;7.40;99.90;;;;;;10059754;28;20025;-67
2024/02/29 10:04:48;;;;;;;18.05;9.82;;;7.40;99.90;;;;;;10063114;28;20474;-68
2024/02/29 10:09:39;;;;;;;20.02;9.77;;;7.50;99.90;;;;;;10066342;28;20049;-67
2024/02/29 10:14:30;;;;;;;20.15;9.05;;;7.60;99.90;;;;;;10056228;28;20025;-68
2024/02/29 10:19:21;;;;;;;22.45;10.45;;;7.50;99.90;;;;;;10055599;28;20024;-71
2024/02/29 10:24:12;;;;;;;18.00;8.10;;;7.70;99.90;;;;;;10053966;28;20597;-68
2024/02/29 10:29:14;;;;;;;16.02;8.35;;;7.80;99.90;;;;;;10056148;28;20041;-70
2024/02/29 10:34:08;;;;;;;20.05;8.10;;;7.80;99.90;;;;;;10055063;28;20045;-65
2024/02/29 10:38:59;;;;;;;13.55;8.52;;;7.80;99.90;;;;;;10052823;28;20019;-66
2024/02/29 10:43:53;;;;;;;17.73;8.60;;;7.90;99.90;;;;;;10063629;28;20047;-65
2024/02/29 10:48:50;;;;;;;20.45;9.20;;;7.90;99.90;;;;;;10062455;28;20502;-64
2024/02/29 10:54:09;;;;;;;19.92;8.50;;;8.00;99.90;;;;;;10065756;28;20056;-66
2024/02/29 10:59:03;;;;;;;19.65;7.63;;;8.00;99.90;;;;;;10043615;28;20022;-65
2024/02/29 11:03:53;;;;;;;20.70;9.90;;;8.00;99.90;;;;;;10062095;28;20030;-66
2024/02/29 11:08:45;;;;;;;19.75;10.32;;;8.10;99.90;;;;;;10063541;28;20048;-65
2024/02/29 11:13:37;;;;;;;20.83;10.20;;;8.10;99.90;;;;;;10062855;28;20112;-65
2024/02/29 11:18:33;;;;;;;20.90;11.43;;;8.20;99.90;;;;;;10062760;28;20487;-67
2024/02/29 11:23:49;;;;;;;25.95;11.73;;;8.20;99.90;;;;;;10071700;28;20052;-68
2024/02/29 11:28:41;;;;;;;24.33;11.23;;;8.20;99.90;;;;;;10059846;28;20038;-66
2024/02/29 11:33:32;;;;;;;24.05;12.25;;;8.30;99.90;;;;;;10061591;28;20076;-66
2024/02/29 11:38:24;;;;;;;22.00;11.52;;;8.30;99.90;;;;;;10068910;28;20060;-65
2024/02/29 11:43:15;;;;;;;22.88;11.60;;;8.40;99.90;;;;;;10059425;28;20073;-66
2024/02/29 11:48:05;;;;;;;21.45;11.23;;;8.40;99.90;;;;;;10060566;28;20060;-66
2024/02/29 11:53:00;;;;;;;20.95;11.30;;;8.50;99.90;;;;;;10059766;28;20120;-67
2024/02/29 11:57:51;;;;;;;23.83;11.77;;;8.60;99.90;;;;;;10063140;28;20021;-66
2024/02/29 12:02:43;;;;;;;21.45;11.52;;;8.60;99.90;;;;;;10061045;28;20052;-65
2024/02/29 12:07:34;;;;;;;20.75;11.10;;;8.70;99.90;;;;;;10066650;28;20463;-66
2024/02/29 12:12:25;;;;;;;21.73;10.10;;;8.70;99.90;;;;;;10060080;28;20059;-66
2024/02/29 12:17:16;;;;;;;18.15;10.85;;;8.80;99.90;;;;;;10072331;28;20080;-66
2024/02/29 12:22:12;;;;;;;20.33;11.25;;;8.90;99.90;;;;;;10077073;28;20048;-67
2024/02/29 12:27:03;;;;;;;20.50;10.88;;;9.00;99.90;;;;;;10076937;28;20037;-70
2024/02/29 12:31:54;;;;;;;20.77;10.82;;;9.10;99.90;;;;;;10072209;28;20105;-67
2024/02/29 12:36:46;;;;;;;24.25;13.75;;;9.20;99.90;;;;;;10081080;28;20040;-65
2024/02/29 12:41:37;;;;;;;19.33;10.52;;;9.40;99.90;;;;;;10078340;28;20061;-71
2024/02/29 12:46:28;;;;;;;22.38;11.15;;;9.50;99.90;;;;;;10071515;28;20056;-67
2024/02/29 12:51:18;;;;;;;23.00;9.80;;;9.60;99.90;;;;;;10072288;28;20104;-65
2024/02/29 12:56:09;;;;;;;18.10;10.38;;;9.70;99.90;;;;;;10079300;28;20033;-65
2024/02/29 13:01:00;;;;;;;22.33;10.52;;;9.80;99.90;;;;;;10071154;28;20043;-65
2024/02/29 13:05:51;;;;;;;19.52;9.80;;;10.00;99.90;;;;;;10065015;28;20138;-65
2024/02/29 13:10:41;;;;;;;20.00;9.07;;;10.20;99.90;;;;;;10062361;28;20426;-65
2024/02/29 13:15:32;;;;;;;20.23;11.07;;;10.20;99.90;;;;;;10053816;28;20040;-65
2024/02/29 13:20:23;;;;;;;22.10;9.52;;;10.40;99.90;;;;;;10065556;28;20052;-65
2024/02/29 13:25:13;;;;;;;18.42;9.80;;;10.50;99.90;;;;;;10055714;28;20080;-66
2024/02/29 13:30:06;;;;;;;20.23;10.07;;;10.70;99.90;;;;;;10059320;28;20033;-65
2024/02/29 13:34:56;;;;;;;19.67;9.43;;;10.80;99.90;;;;;;10069809;28;20034;-65
2024/02/29 13:39:47;;;;;;;17.10;9.82;;;10.90;99.90;;;;;;10061625;28;20014;-66
2024/02/29 13:44:39;;;;;;;21.75;10.20;;;11.10;99.90;;;;;;10056384;28;20400;-68
2024/02/29 13:49:30;;;;;;;18.75;10.00;;;11.20;99.90;;;;;;10056978;28;20100;-67
2024/02/29 13:54:20;;;;;;;21.23;11.25;;;11.30;99.90;;;;;;10056345;28;20041;-68
2024/02/29 13:59:12;;;;;;;20.80;9.90;;;11.50;99.90;;;;;;10058060;28;20037;-65
2024/02/29 14:04:03;;;;;;;18.75;9.95;;;11.60;99.90;;;;;;10054917;28;20067;-64
2024/02/29 14:08:53;;;;;;;20.17;11.00;;;11.80;99.90;;;;;;10056309;28;20022;-63
2024/02/29 14:13:44;;;;;;;19.80;9.13;;;12.00;99.90;;;;;;10058373;28;20037;-63
2024/02/29 14:18:37;;;;;;;24.02;11.15;;;12.20;99.90;;;;;;10055675;28;20022;-65
2024/02/29 14:23:28;;;;;;;22.08;10.60;;;12.40;99.90;;;;;;10058526;28;20045;-66
2024/02/29 14:28:22;;;;;;;17.33;10.75;;;12.50;99.90;;;;;;10051032;28;20614;-64
2024/02/29 14:33:12;;;;;;;23.60;10.70;;;12.70;99.90;;;;;;10055808;28;20170;-64
2024/02/29 14:38:03;;;;;;;23.83;10.63;;;12.80;99.90;;;;;;10061526;28;20025;-64
2024/02/29 14:42:54;;;;;;;20.90;10.70;;;13.00;99.90;;;;;;10054610;28;20059;-64
2024/02/29 14:47:45;;;;;;;18.27;10.35;;;13.10;99.90;;;;;;10055220;28;20426;-69
2024/02/29 14:52:36;;;;;;;19.77;11.10;;;13.30;99.90;;;;;;10055411;28;20018;-70
2024/02/29 14:57:26;;;;;;;22.17;11.40;;;13.50;99.90;;;;;;10054532;28;20754;-69
2024/02/29 15:02:18;;;;;;;20.08;11.07;;;13.70;99.90;;;;;;10054601;28;20121;-69
2024/02/29 15:07:10;;;;;;;23.85;11.23;;;13.70;99.90;;;;;;10056412;28;20083;-67
2024/02/29 15:12:02;;;;;;;19.15;10.57;;;13.80;99.90;;;;;;10055113;28;20021;-69
2024/02/29 15:16:53;;;;;;;16.05;9.60;;;13.90;99.90;;;;;;10054063;28;20021;-63
2024/02/29 15:21:44;;;;;;;19.50;9.93;;;14.00;99.90;;;;;;10060749;28;20541;-65
2024/02/29 15:26:38;;;;;;;20.27;11.18;;;14.00;99.90;;;;;;10057805;28;20075;-67
2024/02/29 15:31:29;;;;;;;19.70;10.07;;;14.10;99.90;;;;;;10073156;28;20022;-67
2024/02/29 15:36:20;;;;;;;17.17;9.63;;;14.20;99.90;;;;;;10070818;28;20117;-65
2024/02/29 15:41:10;;;;;;;18.45;10.10;;;14.30;99.90;;;;;;10061634;28;20057;-63
2024/02/29 15:46:01;;;;;;;21.25;11.00;;;14.30;99.90;;;;;;10061337;28;20091;-64
2024/02/29 15:50:52;;;;;;;17.83;10.10;;;14.30;99.90;;;;;;10062519;28;20030;-64
2024/02/29 15:55:43;;;;;;;15.32;8.40;;;14.30;99.90;;;;;;10060397;28;20495;-64
2024/02/29 16:00:34;;;;;;;20.75;9.88;;;14.30;99.90;;;;;;10060886;28;20025;-65
2024/02/29 16:05:25;;;;;;;16.75;8.65;;;14.40;99.90;;;;;;10062541;28;20040;-64
2024/02/29 16:10:15;;;;;;;19.55;9.75;;;14.40;99.90;;;;;;10058841;28;20034;-64
2024/02/29 16:15:06;;;;;;;14.80;9.13;;;14.30;99.90;;;;;;10060055;28;20112;-64
2024/02/29 16:19:58;;;;;;;17.48;8.75;;;14.20;99.90;;;;;;10057925;28;20018;-64
2024/02/29 16:24:49;;;;;;;16.45;8.48;;;14.10;99.90;;;;;;10054868;28;20041;-64
2024/02/29 16:29:40;;;;;;;16.63;9.90;;;14.00;99.90;;;;;;10061033;28;20095;-63
2024/02/29 16:34:32;;;;;;;18.20;9.02;;;13.80;99.90;;;;;;10065563;28;20629;-67
2024/02/29 16:39:23;;;;;;;16.83;9.55;;;13.50;99.90;;;;;;10059342;28;20017;-64
2024/02/29 16:44:13;;;;;;;17.75;8.38;;;13.30;99.90;;;;;;10060188;28;20447;-66
2024/02/29 16:49:04;;;;;;;18.08;9.18;;;13.20;99.90;;;;;;10059146;28;20026;-65
2024/02/29 16:53:55;;;;;;;12.85;7.35;;;13.00;99.90;;;;;;10058151;28;20029;-69
2024/02/29 16:58:45;;;;;;;19.90;9.00;;;13.00;99.90;;;;;;10060499;28;20104;-71
2024/02/29 17:03:36;;;;;;;15.95;7.40;;;12.90;99.90;;;;;;10058228;28;20041;-65
2024/02/29 17:08:27;;;;;;;16.75;8.27;;;12.90;99.90;;;;;;10058520;28;20033;-70
2024/02/29 17:13:18;;;;;;;13.40;7.18;;;12.80;99.90;;;;;;10062845;28;20032;-69
2024/02/29 17:18:08;;;;;;;14.27;8.35;;;12.70;99.90;;;;;;10057877;28;20045;-69
2024/02/29 17:22:59;;;;;;;17.33;8.75;;;12.70;99.90;;;;;;10070336;28;20096;-72
2024/02/29 17:27:49;;;;;;;17.23;8.18;;;12.60;99.90;;;;;;10054963;28;20559;-65
2024/02/29 17:32:41;;;;;;;17.52;8.02;;;12.60;99.90;;;;;;10052922;28;20029;-68
2024/02/29 17:37:32;;;;;;;14.20;7.95;;;12.60;99.90;;;;;;10056477;28;20056;-71
2024/02/29 17:42:24;;;;;;;13.70;7.40;;;12.50;99.90;;;;;;10055754;28;20087;-71
2024/02/29 17:47:15;;;;;;;17.15;8.18;;;12.60;99.90;;;;;;10066058;28;20052;-67
2024/02/29 17:52:09;;;;;;;15.30;7.82;;;12.50;99.90;;;;;;10056636;28;20021;-65
2024/02/29 17:56:59;;;;;;;16.50;7.93;;;12.50;99.90;;;;;;10056229;28;20064;-67
2024/02/29 18:01:50;;;;;;;18.65;8.43;;;12.50;99.90;;;;;;10059797;28;20069;-66
2024/02/29 18:06:40;;;;;;;18.60;8.30;;;12.50;99.90;;;;;;10069837;28;20033;-68
2024/02/29 18:11:34;;;;;;;17.33;8.35;;;12.40;99.90;;;;;;10056881;28;20071;-65
2024/02/29 18:16:25;;;;;;;14.73;7.47;;;12.30;99.90;;;;;;10066625;28;20029;-64
2024/02/29 18:21:15;;;;;;;17.02;7.50;;;12.30;99.90;;;;;;10063507;28;20609;-68
2024/02/29 18:26:06;;;;;;;15.68;7.82;;;12.30;99.90;;;;;;10061410;28;20415;-69
2024/02/29 18:30:57;;;;;;;17.38;8.63;;;12.30;99.90;;;;;;10055929;28;20033;-67
2024/02/29 18:35:48;;;;;;;16.92;8.50;;;12.30;99.90;;;;;;10074864;28;20025;-69
2024/02/29 18:40:39;;;;;;;17.23;8.45;;;12.30;99.90;;;;;;10076633;28;20116;-68
2024/02/29 18:45:30;;;;;;;17.48;9.77;;;12.20;99.90;;;;;;10054595;28;20467;-69
2024/02/29 18:50:22;;;;;;;15.95;8.27;;;12.20;99.90;;;;;;10059492;28;20091;-68
2024/02/29 18:55:12;;;;;;;15.38;7.28;;;12.20;99.90;;;;;;10054919;28;20406;-65
2024/02/29 19:00:06;;;;;;;16.02;9.07;;;12.20;99.90;;;;;;10077538;28;20029;-66
2024/02/29 19:04:57;;;;;;;15.40;8.30;;;12.20;99.90;;;;;;10094983;28;20525;-68
2024/02/29 19:09:47;;;;;;;17.15;9.20;;;12.10;99.90;;;;;;10063955;28;20116;-66
2024/02/29 19:14:38;;;;;;;17.42;8.23;;;12.10;99.90;;;;;;10069834;28;20046;-66
2024/02/29 19:19:29;;;;;;;22.38;9.80;;;12.10;99.90;;;;;;10061693;28;20041;-66
2024/02/29 19:24:20;;;;;;;15.00;9.05;;;12.10;99.90;;;;;;10046190;28;20533;-67
2024/02/29 19:29:11;;;;;;;19.27;9.23;;;12.00;99.90;;;;;;10061324;28;20550;-67
2024/02/29 19:34:03;;;;;;;17.67;9.40;;;12.00;99.90;;;;;;10060015;28;20045;-66
2024/02/29 19:38:54;;;;;;;20.42;8.80;;;12.00;99.90;;;;;;10061896;28;20026;-69
2024/02/29 19:43:45;;;;;;;15.80;10.07;;;12.00;99.90;;;;;;10061408;28;20033;-70
2024/02/29 19:48:35;;;;;;;22.58;11.63;;;11.90;99.90;;;;;;10061837;28;20498;-66
2024/02/29 19:53:26;;;;;;;26.95;12.05;;;11.90;99.90;;;;;;10061233;28;20018;-70
2024/02/29 19:58:17;;;;;;;16.27;9.40;;;11.80;99.90;;;;;;10060954;28;20037;-69
2024/02/29 20:03:07;;;;;;;20.40;11.35;;;11.80;99.90;;;;;;10060688;28;20044;-68
2024/02/29 20:07:58;;;;;;;19.85;10.52;;;11.70;99.90;;;;;;10060870;28;20034;-69
2024/02/29 20:12:49;;;;;;;21.08;10.27;;;11.70;99.90;;;;;;10060085;28;20030;-68
2024/02/29 20:17:40;;;;;;;16.90;10.57;;;11.70;99.90;;;;;;10060736;28;20068;-68
2024/02/29 20:22:30;;;;;;;19.70;10.93;;;11.70;99.90;;;;;;10060506;28;20106;-70
2024/02/29 20:27:22;;;;;;;23.80;11.27;;;11.60;99.90;;;;;;10059747;28;20025;-67
2024/02/29 20:32:13;;;;;;;17.83;9.95;;;11.70;99.90;;;;;;10059575;28;20036;-66
2024/02/29 20:37:04;;;;;;;22.90;11.07;;;11.60;99.90;;;;;;10058577;28;20127;-67
2024/02/29 20:41:55;;;;;;;19.60;10.32;;;11.60;99.90;;;;;;10058744;28;20108;-69
2024/02/29 20:46:46;;;;;;;17.08;9.45;;;11.50;99.90;;;;;;10058794;28;20040;-68
2024/02/29 20:51:36;;;;;;;20.80;11.02;;;11.50;99.90;;;;;;10067859;28;20600;-66
2024/02/29 20:56:27;;;;;;;19.48;10.98;;;11.50;99.90;;;;;;10057328;28;20025;-67
2024/02/29 21:01:21;;;;;;;19.38;10.85;;;11.50;99.90;;;;;;10059792;28;20049;-66
2024/02/29 21:06:11;;;;;;;17.27;9.30;;;11.40;99.90;;;;;;10057661;28;20580;-67
2024/02/29 21:11:02;;;;;;;19.77;9.45;;;11.30;99.90;;;;;;10057064;28;20033;-67
2024/02/29 21:15:53;;;;;;;20.52;9.95;;;11.30;99.90;;;;;;10058759;28;20041;-66
2024/02/29 21:20:44;;;;;;;17.17;8.95;;;11.20;99.90;;;;;;10058393;28;20029;-66
2024/02/29 21:25:35;;;;;;;24.73;10.07;;;11.20;99.90;;;;;;10056400;28;20048;-66
2024/02/29 21:30:25;;;;;;;13.48;8.00;;;11.10;99.90;;;;;;10060900;28;20033;-68
2024/02/29 21:35:20;;;;;;;15.13;9.73;;;11.10;99.90;;;;;;10055753;28;20013;-68
2024/02/29 21:40:11;;;;;;;15.95;9.13;;;11.10;99.90;;;;;;10057342;28;20583;-67
2024/02/29 21:45:02;;;;;;;15.57;8.95;;;11.00;99.90;;;;;;10067222;28;20044;-68
2024/02/29 21:49:53;;;;;;;17.58;9.80;;;11.00;99.90;;;;;;10057413;28;20026;-67
2024/02/29 21:54:44;;;;;;;17.40;10.40;;;11.00;99.90;;;;;;10054802;28;20036;-66
2024/02/29 21:59:35;;;;;;;21.15;11.13;;;11.00;99.90;;;;;;10056265;28;20028;-66
2024/02/29 22:04:25;;;;;;;18.33;10.70;;;10.90;99.90;;;;;;10056337;28;20029;-67
2024/02/29 22:09:16;;;;;;;17.95;10.48;;;10.80;99.90;;;;;;10059487;28;20072;-66
2024/02/29 22:14:07;;;;;;;22.58;10.90;;;10.80;99.90;;;;;;10052766;28;20017;-69
2024/02/29 22:18:57;;;;;;;17.58;10.15;;;10.70;99.90;;;;;;10059500;28;20475;-68
2024/02/29 22:23:48;;;;;;;21.83;10.57;;;10.70;99.90;;;;;;10060097;28;20120;-66
2024/02/29 22:28:39;;;;;;;23.50;10.90;;;10.60;99.90;;;;;;10040958;23;20508;-72
2024/02/29 22:33:29;;;;;;;23.10;11.52;;;10.60;99.90;;;;;;10023447;28;20029;-71
2024/02/29 22:38:20;;;;;;;19.40;10.60;;;10.60;99.90;;;;;;10018586;28;20093;-74
2024/02/29 22:43:11;;;;;;;23.77;11.40;;;10.50;99.90;;;;;;10017307;28;20041;-73
2024/02/29 22:48:02;;;;;;;22.23;11.18;;;10.50;99.90;;;;;;10018057;28;20026;-71
2024/02/29 22:52:53;;;;;;;20.60;11.00;;;10.50;99.90;;;;;;10017951;28;20026;-72
2024/02/29 22:57:44;;;;;;;23.23;11.38;;;10.40;99.90;;;;;;10019674;28;20085;-73
2024/02/29 23:02:35;;;;;;;20.55;12.23;;;10.40;99.90;;;;;;10022142;28;20336;-74
2024/02/29 23:07:25;;;;;;;26.30;13.05;;;10.40;99.90;;;;;;10012367;28;20030;-73
2024/02/29 23:12:16;;;;;;;22.05;12.60;;;10.30;99.90;;;;;;10018510;28;20505;-72
2024/02/29 23:17:07;;;;;;;21.63;11.57;;;10.30;99.90;;;;;;10030028;28;20509;-72
2024/02/29 23:21:57;;;;;;;26.20;12.80;;;10.20;99.90;;;;;;10007939;28;20040;-70
2024/02/29 23:26:48;;;;;;;20.98;11.35;;;10.20;99.90;;;;;;10012951;28;20056;-71
2024/02/29 23:31:39;;;;;;;18.17;9.85;;;10.10;99.90;;;;;;10015529;28;20032;-70
2024/02/29 23:36:30;;;;;;;19.50;10.98;;;10.10;99.90;;;;;;10011804;28;20022;-72
2024/02/29 23:41:24;;;;;;;17.75;10.82;;;10.10;99.90;;;;;;10014709;28;20030;-71
2024/02/29 23:46:15;;;;;;;16.65;9.25;;;10.10;99.90;;;;;;10018072;28;20104;-71
2024/02/29 23:51:06;;;;;;;19.88;10.55;;;10.10;99.90;;;;;;10023658;28;20026;-71
2024/02/29 23:55:56;;;;;;;21.10;9.85;;;10.10;99.90;;;;;;10020842;28;20101;-70
